Time;durP1;ratioP1;P1;durP2;ratioP2;P2;SDS_P1;SDS_P2;PMS_P1;PMS_P2;Temp;Humidity;BMP_temperature;BMP_pressure;BME280_temperature;BME280_humidity;BME280_pressure;Samples;Min_cycle;Max_cycle;Signal;HPM_P1;HPM_P2
2024/03/05 00:00:16;;;;;;;88.73;46.70;;;;;;;10.16;96.18;100214.91;5072139;28;20228;-77
2024/03/05 00:02:44;;;;;;;87.93;47.57;;;;;;;10.14;95.47;100229.72;5075000;28;20254;-79
2024/03/05 00:05:13;;;;;;;85.73;46.67;;;;;;;10.14;95.37;100238.38;5073567;28;20248;-79
2024/03/05 00:07:40;;;;;;;96.90;48.20;;;;;;;9.98;95.42;100238.75;5073530;28;20224;-79
2024/03/05 00:10:08;;;;;;;92.33;48.30;;;;;;;9.89;96.15;100227.63;5077793;28;20259;-81
2024/03/05 00:12:34;;;;;;;97.37;48.27;;;;;;;9.93;96.28;100225.81;5077523;28;20215;-79
2024/03/05 00:15:01;;;;;;;96.07;47.47;;;;;;;9.97;96.01;100229.19;5077352;28;20228;-79
2024/03/05 00:17:29;;;;;;;94.83;47.93;;;;;;;10.02;95.90;100232.56;5076718;28;20776;-80
2024/03/05 00:19:55;;;;;;;93.83;47.70;;;;;;;10.12;95.46;100240.16;5077976;28;20631;-80
2024/03/05 00:22:21;;;;;;;90.13;45.87;;;;;;;10.22;94.94;100242.59;5076956;28;20205;-78
2024/03/05 00:24:48;;;;;;;91.37;46.43;;;;;;;10.29;94.49;100263.31;5076816;28;20225;-79
2024/03/05 00:27:14;;;;;;;106.13;51.07;;;;;;;10.24;94.40;100270.38;5076261;28;20243;-78
2024/03/05 00:29:41;;;;;;;102.40;50.77;;;;;;;10.28;94.16;100265.94;5071191;28;20232;-81
2024/03/05 00:32:08;;;;;;;96.57;47.97;;;;;;;10.16;93.97;100271.41;5078321;28;20705;-79
2024/03/05 00:34:36;;;;;;;95.80;49.27;;;;;;;10.01;94.47;100283.00;5078732;28;20233;-81
2024/03/05 00:37:02;;;;;;;105.93;50.77;;;;;;;9.75;96.02;100250.47;5076972;28;20204;-79
2024/03/05 00:39:28;;;;;;;117.33;52.33;;;;;;;9.61;97.86;100226.41;5076775;28;20260;-79
2024/03/05 00:41:55;;;;;;;115.33;51.87;;;;;;;9.82;97.93;100204.28;5076906;28;20221;-80
2024/03/05 00:44:21;;;;;;;118.03;50.40;;;;;;;10.00;97.07;100211.75;5078153;28;20258;-80
2024/03/05 00:46:47;;;;;;;105.70;50.00;;;;;;;10.06;96.49;100216.81;5076459;28;20260;-80
2024/03/05 00:49:14;;;;;;;107.37;50.30;;;;;;;9.93;96.37;100224.06;5076916;28;20205;-80
2024/03/05 00:51:41;;;;;;;115.33;50.60;;;;;;;10.01;96.23;100225.63;5077747;28;20235;-79
2024/03/05 00:54:08;;;;;;;106.07;50.67;;;;;;;10.09;96.11;100228.97;5077162;28;20679;-80
2024/03/05 00:56:34;;;;;;;103.93;50.97;;;;;;;10.18;95.75;100230.53;5076400;28;20228;-80
2024/03/05 00:59:00;;;;;;;110.87;52.00;;;;;;;10.12;95.53;100234.09;5069800;28;20224;-81
2024/03/05 01:01:27;;;;;;;118.40;53.37;;;;;;;9.91;95.22;100244.09;5076969;28;20229;-79
2024/03/05 01:03:55;;;;;;;107.67;51.10;;;;;;;9.73;96.92;100216.63;5077164;28;20201;-79
2024/03/05 01:06:21;;;;;;;122.43;55.27;;;;;;;9.49;99.04;100191.00;5075249;28;20260;-79
2024/03/05 01:08:49;;;;;;;127.87;53.37;;;;;;;9.66;99.39;100169.84;5076617;28;20205;-80
2024/03/05 01:11:15;;;;;;;116.87;52.40;;;;;;;9.84;98.67;100160.81;5076586;28;20251;-79
2024/03/05 01:13:42;;;;;;;121.77;54.67;;;;;;;9.93;98.49;100176.28;5077059;28;20251;-78
2024/03/05 01:16:09;;;;;;;118.33;52.97;;;;;;;9.53;99.90;100166.59;5075584;28;20719;-79
2024/03/05 01:18:36;;;;;;;119.67;53.50;;;;;;;9.43;100.00;100147.69;5075621;28;20204;-79
2024/03/05 01:21:03;;;;;;;127.33;55.97;;;;;;;9.44;100.00;100119.91;5075892;28;20235;-79
2024/03/05 01:23:30;;;;;;;119.07;53.40;;;;;;;9.46;100.00;100110.31;5094103;28;20209;-80
2024/03/05 01:25:58;;;;;;;130.30;55.13;;;;;;;9.30;100.00;100100.19;5094380;28;20263;-80
2024/03/05 01:28:28;;;;;;;129.83;53.77;;;;;;;9.27;100.00;100088.97;5070208;28;20213;-80
2024/03/05 01:30:54;;;;;;;127.97;53.90;;;;;;;9.30;100.00;100073.28;5076821;28;20254;-81
2024/03/05 01:33:21;;;;;;;128.53;55.33;;;;;;;9.30;100.00;100063.72;5075251;28;20216;-79
2024/03/05 01:35:48;;;;;;;132.40;55.57;;;;;;;9.30;100.00;100055.91;5074980;28;20225;-77
2024/03/05 01:38:15;;;;;;;137.73;55.60;;;;;;;9.11;100.00;100051.94;5075704;28;20266;-79
2024/03/05 01:40:42;;;;;;;138.73;56.83;;;;;;;9.05;100.00;100036.44;5077047;28;20228;-80
2024/03/05 01:43:10;;;;;;;135.07;56.90;;;;;;;9.13;100.00;100021.53;5076517;28;20205;-79
2024/03/05 01:45:36;;;;;;;137.00;56.67;;;;;;;9.13;100.00;100024.97;5075869;28;20225;-80
2024/03/05 01:48:04;;;;;;;130.90;55.63;;;;;;;9.13;100.00;100019.78;5076907;28;20208;-79
2024/03/05 01:50:31;;;;;;;122.20;54.90;;;;;;;9.43;100.00;100019.19;5075382;28;20208;-77
2024/03/05 01:52:57;;;;;;;119.10;53.23;;;;;;;9.61;100.00;100036.19;5076689;28;20205;-79
2024/03/05 01:55:25;;;;;;;121.17;52.70;;;;;;;9.74;100.00;100054.13;5075539;28;20233;-80
2024/03/05 01:57:52;;;;;;;117.77;52.77;;;;;;;9.85;100.00;100072.16;5070696;28;20241;-81
2024/03/05 02:00:21;;;;;;;112.30;51.27;;;;;;;9.97;100.00;100097.09;5074445;28;20476;-79
2024/03/05 02:02:49;;;;;;;109.50;51.83;;;;;;;9.98;100.00;100118.81;5075868;28;20209;-80
2024/03/05 02:05:15;;;;;;;110.83;51.33;;;;;;;9.90;99.44;100138.06;5075039;28;20225;-77
2024/03/05 02:07:43;;;;;;;110.80;51.97;;;;;;;9.93;99.24;100147.59;5074970;28;20224;-77
2024/03/05 02:10:10;;;;;;;113.40;51.77;;;;;;;9.90;98.89;100158.06;5075573;28;20735;-80
2024/03/05 02:12:37;;;;;;;107.33;52.27;;;;;;;10.00;98.43;100162.19;5075291;28;20675;-80
2024/03/05 02:15:04;;;;;;;107.53;49.37;;;;;;;10.09;98.11;100169.84;5075652;28;20221;-80
2024/03/05 02:17:32;;;;;;;124.30;52.60;;;;;;;10.17;97.59;100181.84;5075842;28;20698;-80
2024/03/05 02:20:01;;;;;;;98.57;50.20;;;;;;;10.24;96.94;100201.69;5075629;28;20205;-80
2024/03/05 02:22:28;;;;;;;103.60;49.17;;;;;;;10.25;96.31;100203.44;5075413;28;20228;-79
2024/03/05 02:24:55;;;;;;;106.63;52.23;;;;;;;10.13;96.40;100209.75;5075607;28;20229;-80
2024/03/05 02:27:22;;;;;;;111.93;51.40;;;;;;;10.17;96.48;100221.84;5074105;28;20217;-81
2024/03/05 02:29:49;;;;;;;116.07;50.17;;;;;;;10.21;96.03;100233.94;5069117;28;20254;-79
2024/03/05 02:32:15;;;;;;;110.90;50.60;;;;;;;10.26;95.79;100231.22;5074431;28;20201;-80
2024/03/05 02:34:42;;;;;;;114.83;51.87;;;;;;;10.28;95.34;100239.88;5074909;28;20247;-80
2024/03/05 02:37:11;;;;;;;106.63;48.47;;;;;;;10.34;95.17;100244.97;5075987;28;20300;-77
2024/03/05 02:39:38;;;;;;;113.63;50.30;;;;;;;10.37;94.82;100249.31;5074945;28;20308;-80
2024/03/05 02:42:05;;;;;;;115.83;52.37;;;;;;;10.40;94.24;100265.72;5075056;28;20295;-80
2024/03/05 02:44:32;;;;;;;113.67;51.47;;;;;;;10.43;93.88;100277.88;5074542;28;20278;-80
2024/03/05 02:46:58;;;;;;;114.03;49.93;;;;;;;10.44;93.22;100288.25;5074337;28;20219;-80
2024/03/05 02:49:24;;;;;;;113.83;52.77;;;;;;;10.40;93.30;100294.44;5075086;28;20214;-80
2024/03/05 02:51:51;;;;;;;129.03;54.73;;;;;;;10.38;93.55;100292.75;5074857;28;20205;-80
2024/03/05 02:54:18;;;;;;;132.20;54.23;;;;;;;10.41;93.87;100292.69;5074268;28;20236;-80
2024/03/05 02:56:45;;;;;;;131.80;55.93;;;;;;;10.42;93.83;100290.03;5074766;28;20215;-80
2024/03/05 02:59:12;;;;;;;143.83;55.20;;;;;;;10.45;93.82;100289.13;5066596;28;20231;-81
2024/03/05 03:01:39;;;;;;;147.83;58.03;;;;;;;10.40;93.84;100286.59;5073858;28;20698;-80
2024/03/05 03:04:05;;;;;;;156.03;59.27;;;;;;;10.30;94.70;100278.09;5075521;28;20566;-80
2024/03/05 03:06:32;;;;;;;151.93;57.57;;;;;;;10.36;94.73;100265.84;5073500;28;20768;-77
2024/03/05 03:08:59;;;;;;;152.70;59.00;;;;;;;10.37;94.77;100272.78;5074525;28;20204;-80
2024/03/05 03:11:25;;;;;;;146.40;57.93;;;;;;;10.40;94.53;100267.47;5075414;28;20209;-79
2024/03/05 03:13:53;;;;;;;139.93;58.47;;;;;;;10.38;94.40;100271.88;5073349;28;20239;-79
2024/03/05 03:16:19;;;;;;;153.13;59.40;;;;;;;10.41;94.50;100257.03;5073670;28;20289;-78
2024/03/05 03:18:45;;;;;;;142.80;57.27;;;;;;;10.41;94.71;100264.84;5074466;28;20747;-80
2024/03/05 03:21:12;;;;;;;154.90;58.27;;;;;;;10.42;95.02;100257.88;5074372;28;20224;-77
2024/03/05 03:23:39;;;;;;;129.80;54.77;;;;;;;10.45;94.52;100263.88;5074386;28;20209;-79
2024/03/05 03:26:06;;;;;;;150.47;57.60;;;;;;;10.49;93.90;100277.75;5073454;28;20226;-79
2024/03/05 03:28:33;;;;;;;137.83;55.33;;;;;;;10.45;93.82;100282.16;5074192;28;20208;-79
2024/03/05 03:31:01;;;;;;;148.70;56.73;;;;;;;10.47;93.18;100277.75;5073851;28;20209;-80
2024/03/05 03:33:27;;;;;;;141.80;55.50;;;;;;;10.47;93.82;100284.75;5074023;28;20217;-79
2024/03/05 03:35:55;;;;;;;138.90;54.37;;;;;;;10.48;93.76;100286.44;5074679;28;20282;-79
2024/03/05 03:38:21;;;;;;;142.57;55.40;;;;;;;10.47;93.68;100287.34;5073758;28;20216;-80
2024/03/05 03:40:48;;;;;;;138.03;52.87;;;;;;;10.49;93.48;100296.00;5074155;28;20674;-79
2024/03/05 03:43:14;;;;;;;150.43;57.90;;;;;;;10.46;93.60;100298.66;5076191;28;20256;-80
2024/03/05 03:45:40;;;;;;;143.53;57.23;;;;;;;10.42;94.01;100291.78;5079942;28;20240;-80
2024/03/05 03:48:09;;;;;;;137.60;54.83;;;;;;;10.44;93.75;100292.63;5080559;28;20204;-80
2024/03/05 03:50:37;;;;;;;136.77;54.67;;;;;;;10.39;94.25;100290.13;5080794;28;20236;-79
2024/03/05 03:53:04;;;;;;;127.70;53.93;;;;;;;10.38;94.55;100275.34;5081179;28;20226;-79
2024/03/05 03:55:31;;;;;;;127.73;51.97;;;;;;;10.40;94.27;100273.56;5079479;28;20229;-77
2024/03/05 03:57:57;;;;;;;125.77;53.47;;;;;;;10.37;94.58;100275.38;5080351;28;20254;-79
2024/03/05 04:00:23;;;;;;;123.30;52.60;;;;;;;10.35;94.84;100262.38;5079547;28;20684;-80
2024/03/05 04:02:50;;;;;;;119.63;51.90;;;;;;;10.36;95.12;100258.00;5081709;28;20224;-79
2024/03/05 04:05:18;;;;;;;104.83;50.03;;;;;;;10.36;95.43;100251.03;5081543;28;20247;-77
2024/03/05 04:07:44;;;;;;;97.87;49.47;;;;;;;10.37;94.92;100242.31;5079748;28;20323;-79
2024/03/05 04:10:11;;;;;;;103.47;50.50;;;;;;;10.33;95.48;100245.88;5080145;28;20209;-81
2024/03/05 04:12:37;;;;;;;98.03;49.67;;;;;;;10.31;95.78;100238.09;5079340;28;20832;-79
2024/03/05 04:15:05;;;;;;;99.90;50.10;;;;;;;10.29;96.13;100232.00;5080781;28;20229;-79
2024/03/05 04:17:31;;;;;;;99.47;48.87;;;;;;;10.31;96.24;100237.25;5080563;28;20209;-78
2024/03/05 04:19:57;;;;;;;99.33;50.37;;;;;;;10.32;96.28;100233.72;5079168;28;20263;-78
2024/03/05 04:22:25;;;;;;;100.10;50.13;;;;;;;10.32;96.16;100234.56;5080034;28;20225;-80
2024/03/05 04:24:55;;;;;;;87.33;46.20;;;;;;;10.36;95.85;100237.97;5081255;28;20601;-79
2024/03/05 04:27:22;;;;;;;99.07;49.03;;;;;;;10.34;95.83;100238.00;5079840;28;20212;-81
2024/03/05 04:29:53;;;;;;;98.67;48.63;;;;;;;10.34;95.85;100237.16;5079973;28;20573;-80
2024/03/05 04:32:20;;;;;;;91.27;47.13;;;;;;;10.37;95.53;100246.69;5080171;28;20207;-77
2024/03/05 04:34:49;;;;;;;83.77;46.33;;;;;;;10.33;95.82;100241.53;5080261;28;20229;-80
2024/03/05 04:37:16;;;;;;;82.67;46.27;;;;;;;10.31;96.02;100240.69;5080244;28;20205;-80
2024/03/05 04:39:45;;;;;;;86.60;46.23;;;;;;;10.28;96.44;100238.09;5079746;28;20213;-81
2024/03/05 04:42:12;;;;;;;86.53;45.67;;;;;;;10.26;96.67;100233.81;5079049;28;20234;-80
2024/03/05 04:44:42;;;;;;;84.17;46.53;;;;;;;10.25;96.64;100232.97;5078570;28;20467;-80
2024/03/05 04:47:09;;;;;;;84.03;45.53;;;;;;;10.24;96.43;100231.25;5079977;28;20212;-80
2024/03/05 04:49:36;;;;;;;81.10;43.73;;;;;;;10.28;96.25;100232.03;5080109;28;20212;-79
2024/03/05 04:52:02;;;;;;;75.03;42.23;;;;;;;10.29;95.91;100241.59;5079508;28;20200;-80
2024/03/05 04:54:30;;;;;;;69.23;41.13;;;;;;;10.25;95.87;100243.41;5077135;28;20259;-81
2024/03/05 04:56:57;;;;;;;62.50;38.87;;;;;;;10.26;95.30;100254.69;5076661;28;20215;-79
2024/03/05 04:59:24;;;;;;;66.10;39.73;;;;;;;10.25;94.64;100271.25;5075067;28;20208;-78
2024/03/05 05:01:50;;;;;;;63.87;38.40;;;;;;;10.25;94.47;100277.31;5075898;28;20651;-80
2024/03/05 05:04:16;;;;;;;61.53;39.50;;;;;;;10.03;94.98;100283.81;5076422;28;20231;-80
2024/03/05 05:06:43;;;;;;;59.60;37.73;;;;;;;9.85;96.38;100265.06;5076680;28;20250;-80
2024/03/05 05:09:09;;;;;;;61.57;37.57;;;;;;;9.78;96.71;100245.19;5075960;28;20209;-80
2024/03/05 05:11:35;;;;;;;62.23;37.90;;;;;;;9.76;97.00;100233.94;5077468;28;20206;-81
2024/03/05 05:14:03;;;;;;;63.37;38.93;;;;;;;9.77;97.07;100225.22;5076795;28;20205;-81
2024/03/05 05:16:30;;;;;;;53.07;36.13;;;;;;;9.75;96.51;100227.00;5076408;28;20259;-81
2024/03/05 05:18:56;;;;;;;53.23;35.30;;;;;;;9.96;95.07;100246.59;5076310;28;20205;-80
2024/03/05 05:21:23;;;;;;;57.13;34.83;;;;;;;9.83;94.79;100272.06;5076802;28;20201;-79
2024/03/05 05:23:50;;;;;;;53.77;34.93;;;;;;;9.88;94.59;100275.41;5076406;28;20673;-80
2024/03/05 05:26:16;;;;;;;58.43;35.07;;;;;;;9.91;94.22;100271.88;5076014;28;20233;-79
2024/03/05 05:28:43;;;;;;;58.60;34.50;;;;;;;9.90;94.28;100278.84;5074888;28;20233;-80
2024/03/05 05:31:23;;;;;;;52.93;32.83;;;;;;;9.95;94.05;100284.00;5075844;28;20649;-80
2024/03/05 05:33:50;;;;;;;53.53;32.93;;;;;;;9.94;94.04;100295.31;5077313;28;20201;-80
2024/03/05 05:36:16;;;;;;;41.60;31.57;;;;;;;9.89;93.95;100291.91;5076581;28;20227;-79
2024/03/05 05:38:44;;;;;;;45.60;31.97;;;;;;;9.84;94.02;100288.53;5075559;28;20674;-80
2024/03/05 05:41:10;;;;;;;52.73;32.53;;;;;;;9.88;93.99;100300.63;5076417;28;20209;-78
2024/03/05 05:43:36;;;;;;;46.73;30.97;;;;;;;9.85;93.52;100303.28;5077148;28;20286;-80
2024/03/05 05:46:04;;;;;;;41.37;28.27;;;;;;;9.81;93.64;100312.06;5076234;28;20583;-80
2024/03/05 05:48:32;;;;;;;43.80;30.03;;;;;;;9.79;93.67;100306.88;5076532;28;20248;-80
2024/03/05 05:51:00;;;;;;;33.10;27.10;;;;;;;9.77;93.92;100311.25;5076996;28;20204;-80
2024/03/05 05:53:27;;;;;;;36.07;28.13;;;;;;;9.77;93.76;100316.44;5075739;28;20201;-79
2024/03/05 05:55:53;;;;;;;38.00;27.67;;;;;;;9.77;93.85;100310.38;5075324;28;20224;-80
2024/03/05 05:58:20;;;;;;;40.47;27.43;;;;;;;9.77;93.42;100315.59;5073427;28;20208;-80
2024/03/05 06:00:47;;;;;;;27.83;24.57;;;;;;;9.79;93.03;100325.13;5075368;28;20687;-80
2024/03/05 06:03:13;;;;;;;27.17;24.43;;;;;;;9.73;93.23;100338.25;5075706;28;20224;-78
2024/03/05 06:05:42;;;;;;;27.50;23.20;;;;;;;9.76;93.04;100330.38;5075119;28;20282;-80
2024/03/05 06:08:10;;;;;;;24.73;22.10;;;;;;;9.76;92.62;100337.34;5074502;28;20304;-77
2024/03/05 06:10:37;;;;;;;23.27;20.97;;;;;;;9.76;92.29;100356.44;5066342;28;20236;-80
2024/03/05 06:13:03;;;;;;;24.27;21.87;;;;;;;9.71;92.94;100358.25;5077835;28;20205;-83
2024/03/05 06:15:30;;;;;;;23.00;20.73;;;;;;;9.69;92.98;100352.22;5078019;28;20246;-80
2024/03/05 06:17:58;;;;;;;20.50;18.80;;;;;;;9.59;93.78;100340.22;5075607;28;20217;-80
2024/03/05 06:20:24;;;;;;;19.63;18.13;;;;;;;9.55;93.85;100336.81;5075297;28;20578;-78
2024/03/05 06:22:52;;;;;;;18.93;17.43;;;;;;;9.61;93.43;100331.50;5075873;28;20703;-79
2024/03/05 06:25:18;;;;;;;18.63;17.13;;;;;;;9.53;94.05;100329.03;5077155;28;20228;-82
2024/03/05 06:27:45;;;;;;;19.53;18.03;;;;;;;9.54;94.22;100328.13;5075388;28;20216;-81
2024/03/05 06:30:15;;;;;;;16.80;15.47;;;;;;;9.45;94.36;100319.63;5075938;28;20204;-80
2024/03/05 06:32:42;;;;;;;15.67;14.57;;;;;;;9.53;93.57;100325.56;5075336;28;20206;-81
2024/03/05 06:35:10;;;;;;;16.27;15.07;;;;;;;9.52;93.24;100337.72;5075877;28;20225;-80
2024/03/05 06:37:37;;;;;;;15.20;14.00;;;;;;;9.45;93.85;100333.50;5076386;28;20213;-80
2024/03/05 06:40:09;;;;;;;15.50;14.40;;;;;;;9.45;93.23;100338.69;5074729;28;20267;-80
2024/03/05 06:42:35;;;;;;;15.23;14.03;;;;;;;9.44;93.38;100346.56;5074978;28;20220;-80
2024/03/05 06:45:06;;;;;;;17.23;15.93;;;;;;;9.41;93.99;100349.19;5075951;28;20225;-80
2024/03/05 06:47:38;;;;;;;20.73;19.03;;;;;;;9.44;93.41;100350.03;5075656;28;20209;-80
2024/03/05 06:50:08;;;;;;;20.73;19.07;;;;;;;9.46;92.77;100363.03;5075534;28;20209;-79
2024/03/05 06:58:04;;;;;;;20.70;18.90;;;;;;;9.33;93.21;100372.75;5072154;28;20587;-80
2024/03/05 07:00:30;;;;;;;20.27;18.43;;;;;;;9.32;93.01;100377.13;5074475;28;20640;-80
2024/03/05 07:02:57;;;;;;;20.67;19.07;;;;;;;9.32;93.36;100371.06;5075175;28;20254;-80
2024/03/05 07:05:23;;;;;;;20.27;18.50;;;;;;;9.30;93.39;100367.63;5075699;28;20255;-80
2024/03/05 07:07:50;;;;;;;18.90;17.50;;;;;;;9.30;93.17;100368.47;5075137;28;20274;-78
2024/03/05 07:10:21;;;;;;;20.40;18.70;;;;;;;9.27;93.93;100357.22;5075487;28;20260;-79
2024/03/05 07:12:50;;;;;;;18.70;17.30;;;;;;;9.29;93.84;100363.28;5075704;28;20633;-80
2024/03/05 07:15:17;;;;;;;18.53;17.03;;;;;;;9.30;93.30;100368.47;5075164;28;20636;-80
2024/03/05 07:17:44;;;;;;;19.97;18.37;;;;;;;9.28;93.37;100372.84;5084543;28;20263;-77
2024/03/05 07:20:18;;;;;;;19.30;17.80;;;;;;;9.25;93.40;100369.41;5084144;28;20255;-79
2024/03/05 07:22:45;;;;;;;22.23;20.27;;;;;;;9.24;93.44;100362.50;5075455;28;20225;-80
2024/03/05 07:25:14;;;;;;;23.87;21.63;;;;;;;9.21;92.55;100384.22;5074908;28;20220;-79
2024/03/05 07:27:41;;;;;;;22.40;20.50;;;;;;;9.18;92.98;100376.47;5071356;28;20213;-80
2024/03/05 07:30:15;;;;;;;21.90;20.07;;;;;;;9.12;93.27;100377.41;5075029;28;20278;-81
2024/03/05 07:32:42;;;;;;;21.87;20.17;;;;;;;9.14;93.22;100367.84;5075260;28;20199;-80
2024/03/05 07:35:09;;;;;;;21.53;19.70;;;;;;;9.16;92.65;100380.84;5075025;28;20228;-81
2024/03/05 07:37:36;;;;;;;22.30;20.33;;;;;;;8.83;94.42;100367.38;5074970;28;20232;-82
2024/03/05 07:40:09;;;;;;;22.93;20.63;;;;;;;8.77;94.95;100348.41;5077035;28;20208;-81
2024/03/05 07:42:35;;;;;;;23.60;21.40;;;;;;;8.74;95.54;100339.75;5081407;28;20282;-80
2024/03/05 07:45:04;;;;;;;23.60;21.20;;;;;;;8.73;95.65;100332.81;5083309;28;20232;-80
2024/03/05 07:47:32;;;;;;;23.37;21.23;;;;;;;8.73;95.68;100331.94;5081742;28;20224;-81
2024/03/05 07:49:59;;;;;;;25.20;22.73;;;;;;;8.75;95.55;100327.59;5082257;28;20204;-79
2024/03/05 07:52:26;;;;;;;24.83;21.47;;;;;;;8.70;95.64;100326.78;5081441;28;20201;-80
2024/03/05 07:54:52;;;;;;;25.37;23.00;;;;;;;8.66;96.21;100315.56;5081986;28;20254;-80
2024/03/05 07:57:18;;;;;;;26.33;23.53;;;;;;;8.68;96.04;100312.94;5081870;28;20205;-80
2024/03/05 07:59:44;;;;;;;27.00;23.93;;;;;;;8.65;96.69;100312.97;5070470;28;20206;-80
2024/03/05 08:02:13;;;;;;;30.20;24.73;;;;;;;8.68;96.42;100324.22;5074177;28;20275;-80
2024/03/05 08:04:41;;;;;;;29.53;25.67;;;;;;;8.60;96.51;100320.81;5074210;28;20231;-80
2024/03/05 08:07:07;;;;;;;28.53;25.10;;;;;;;8.63;96.53;100310.38;5077334;28;20235;-81
2024/03/05 08:09:36;;;;;;;27.60;24.67;;;;;;;8.68;95.39;100323.31;5078112;28;20204;-80
2024/03/05 08:12:03;;;;;;;28.10;25.20;;;;;;;8.68;95.94;100329.41;5077427;28;20204;-80
2024/03/05 08:14:30;;;;;;;29.63;24.80;;;;;;;8.67;96.03;100324.22;5077184;28;20226;-82
2024/03/05 08:16:56;;;;;;;35.30;26.87;;;;;;;8.66;95.40;100339.00;5090856;28;20227;-82
2024/03/05 08:19:22;;;;;;;31.43;25.33;;;;;;;8.59;95.71;100324.31;5082480;28;20240;-83
2024/03/05 08:21:50;;;;;;;32.60;27.03;;;;;;;8.62;96.21;100321.69;5059577;28;20201;-80
2024/03/05 08:24:16;;;;;;;33.47;25.10;;;;;;;8.66;95.90;100325.97;5055902;28;20225;-79
2024/03/05 08:26:43;;;;;;;31.70;26.03;;;;;;;8.60;95.56;100335.59;5054433;28;20209;-80
2024/03/05 08:29:09;;;;;;;31.70;25.90;;;;;;;8.65;95.38;100334.66;5085203;28;20209;-80
2024/03/05 08:31:35;;;;;;;35.60;27.13;;;;;;;8.61;96.12;100327.75;5087250;28;20267;-80
2024/03/05 08:34:04;;;;;;;33.60;26.07;;;;;;;8.60;95.99;100328.63;5082009;28;20209;-80
2024/03/05 08:36:36;;;;;;;30.23;24.33;;;;;;;8.62;95.79;100333.81;5079397;28;20264;-80
2024/03/05 08:39:05;;;;;;;28.87;25.83;;;;;;;8.51;95.98;100329.63;5078481;28;20228;-81
2024/03/05 08:41:31;;;;;;;29.03;25.83;;;;;;;8.57;96.72;100322.63;5078353;28;20209;-78
2024/03/05 08:43:58;;;;;;;30.33;25.33;;;;;;;8.56;96.01;100321.75;5078924;28;20252;-79
2024/03/05 08:46:24;;;;;;;27.43;24.73;;;;;;;8.58;95.89;100327.78;5087947;28;20235;-81
2024/03/05 08:48:50;;;;;;;29.20;26.07;;;;;;;8.50;95.72;100333.13;5078951;28;20212;-80
2024/03/05 08:51:18;;;;;;;27.27;24.43;;;;;;;8.55;95.95;100336.50;5080008;28;20201;-80
2024/03/05 08:53:44;;;;;;;26.90;24.03;;;;;;;8.52;95.89;100333.97;5079974;28;20546;-79
2024/03/05 08:56:13;;;;;;;30.60;25.13;;;;;;;8.55;95.93;100335.66;5079971;28;20251;-82
2024/03/05 08:58:40;;;;;;;31.53;26.23;;;;;;;8.53;96.15;100340.88;5074359;28;20744;-80
2024/03/05 09:01:06;;;;;;;30.60;26.47;;;;;;;8.55;96.75;100343.47;5061571;28;20208;-79
2024/03/05 09:03:32;;;;;;;30.43;25.93;;;;;;;8.57;96.21;100338.25;5078430;28;20233;-84
2024/03/05 09:05:59;;;;;;;33.93;25.40;;;;;;;8.48;96.72;100341.78;5078463;28;20221;-81
2024/03/05 09:08:25;;;;;;;33.40;26.43;;;;;;;8.50;97.13;100332.22;5077495;28;20259;-81
2024/03/05 09:10:52;;;;;;;28.23;25.33;;;;;;;8.50;97.31;100333.13;5079231;28;20254;-79
2024/03/05 09:13:20;;;;;;;28.70;25.30;;;;;;;8.48;97.42;100331.38;5078484;28;20202;-80
2024/03/05 09:15:46;;;;;;;34.73;26.53;;;;;;;8.49;97.77;100328.78;5080111;28;20316;-79
2024/03/05 09:18:13;;;;;;;32.87;25.87;;;;;;;8.52;97.52;100333.06;5079483;28;20205;-81
2024/03/05 09:20:41;;;;;;;33.43;25.90;;;;;;;8.54;97.24;100333.91;5078902;28;20212;-80
2024/03/05 09:23:08;;;;;;;34.80;26.87;;;;;;;8.50;96.64;100342.63;5078495;28;20648;-81
2024/03/05 09:25:36;;;;;;;27.90;25.10;;;;;;;8.54;96.64;100342.59;5079720;28;20278;-80
2024/03/05 09:28:04;;;;;;;32.00;26.43;;;;;;;8.58;96.76;100346.00;5076247;28;20216;-81
2024/03/05 09:30:33;;;;;;;33.93;25.30;;;;;;;8.56;97.30;100345.16;5072660;28;20207;-81
2024/03/05 09:33:01;;;;;;;33.43;24.60;;;;;;;8.61;96.35;100348.56;5078560;28;20239;-82
2024/03/05 09:35:28;;;;;;;36.10;26.77;;;;;;;8.58;96.58;100356.41;5079340;28;20235;-80
2024/03/05 09:37:54;;;;;;;30.73;25.70;;;;;;;8.62;96.47;100358.13;5081140;28;20317;-81
2024/03/05 09:40:23;;;;;;;32.30;26.73;;;;;;;8.62;96.78;100352.91;5080222;28;20238;-83
2024/03/05 09:42:49;;;;;;;32.67;27.33;;;;;;;8.58;97.09;100345.16;5078696;28;20297;-83
2024/03/05 09:45:17;;;;;;;33.67;27.40;;;;;;;8.52;97.51;100338.28;5079956;28;20228;-83
2024/03/05 09:47:45;;;;;;;31.37;26.33;;;;;;;8.49;97.64;100338.34;5095150;28;20205;-81
2024/03/05 09:50:13;;;;;;;38.20;26.77;;;;;;;8.49;97.68;100336.59;5085699;28;20292;-81
2024/03/05 09:52:39;;;;;;;30.57;26.17;;;;;;;8.46;97.76;100336.63;5081683;28;20206;-82
2024/03/05 09:55:06;;;;;;;33.07;25.80;;;;;;;8.53;97.24;100350.41;5082749;28;20286;-82
2024/03/05 09:57:35;;;;;;;37.67;26.43;;;;;;;8.52;97.01;100353.88;5081102;28;20204;-81
2024/03/05 10:00:03;;;;;;;37.80;28.00;;;;;;;8.57;96.72;100364.25;5074872;28;20664;-81
2024/03/05 10:02:30;;;;;;;40.50;26.47;;;;;;;8.60;96.71;100357.25;5090065;28;20215;-81
2024/03/05 10:05:01;;;;;;;32.43;26.03;;;;;;;8.62;96.30;100373.72;5080584;28;20776;-82
2024/03/05 10:07:28;;;;;;;35.67;26.23;;;;;;;8.61;96.38;100379.81;5078873;28;20209;-81
2024/03/05 10:10:05;;;;;;;32.03;26.27;;;;;;;8.61;95.88;100389.34;5081901;28;20235;-81
2024/03/05 10:12:31;;;;;;;38.13;27.40;;;;;;;8.60;96.52;100390.22;5078005;28;20675;-82
2024/03/05 10:15:11;;;;;;;38.67;28.27;;;;;;;8.64;96.27;100384.97;5080113;28;20221;-81
2024/03/05 10:17:42;;;;;;;39.77;28.73;;;;;;;8.59;96.84;100383.31;5078412;28;20254;-81
2024/03/05 10:20:11;;;;;;;42.03;29.00;;;;;;;8.62;97.08;100376.34;5080422;28;20266;-82
2024/03/05 10:22:38;;;;;;;45.50;29.17;;;;;;;8.62;97.66;100375.44;5080668;28;20212;-83
2024/03/05 10:25:13;;;;;;;49.07;30.57;;;;;;;8.66;96.66;100370.22;5082425;28;20239;-81
2024/03/05 10:27:46;;;;;;;40.53;28.57;;;;;;;8.68;96.91;100376.25;5074795;28;20205;-82
2024/03/05 10:30:23;;;;;;;39.67;28.33;;;;;;;8.62;97.45;100380.66;5062304;28;20197;-83
2024/03/05 10:32:54;;;;;;;39.30;29.87;;;;;;;8.60;97.21;100372.84;5078305;28;20243;-81
2024/03/05 10:35:22;;;;;;;46.03;29.53;;;;;;;8.59;96.57;100386.75;5076268;28;20256;-83
2024/03/05 10:38:05;;;;;;;60.33;31.77;;;;;;;8.43;97.52;100373.06;5077011;28;20205;-81
2024/03/05 10:40:34;;;;;;;51.00;32.20;;;;;;;8.46;96.31;100380.84;5077938;28;20583;-81
2024/03/05 10:43:02;;;;;;;53.50;31.47;;;;;;;8.48;96.32;100393.81;5077450;28;20205;-82
2024/03/05 10:45:29;;;;;;;54.03;32.50;;;;;;;8.49;96.12;100400.75;5077624;28;20289;-80
2024/03/05 10:47:58;;;;;;;59.77;33.50;;;;;;;8.52;95.74;100399.00;5076084;28;20231;-80
2024/03/05 10:50:26;;;;;;;58.63;34.03;;;;;;;8.52;95.52;100413.72;5076757;28;20212;-82
2024/03/05 10:52:54;;;;;;;55.20;33.60;;;;;;;8.51;95.53;100422.41;5077012;28;20208;-82
2024/03/05 10:55:21;;;;;;;66.93;33.63;;;;;;;8.47;96.16;100423.31;5078144;28;20225;-79
2024/03/05 11:00:35;;;;;;;55.77;33.80;;;;;;;8.52;95.17;100435.41;5066953;28;20270;-80
2024/03/05 11:03:07;;;;;;;63.20;34.10;;;;;;;8.54;95.48;100437.97;5078734;28;20836;-81
2024/03/05 11:05:41;;;;;;;60.53;32.40;;;;;;;8.52;95.68;100442.34;5077455;28;20237;-80
2024/03/05 11:08:13;;;;;;;58.70;31.47;;;;;;;8.43;95.70;100443.31;5076067;28;20230;-82
2024/03/05 11:10:41;;;;;;;51.07;32.30;;;;;;;8.44;95.38;100452.81;5077902;28;20208;-82
2024/03/05 11:13:08;;;;;;;54.73;32.87;;;;;;;8.34;95.92;100435.53;5077049;28;20230;-80
2024/03/05 11:15:36;;;;;;;58.03;32.40;;;;;;;8.39;95.38;100432.91;5075861;28;20745;-82
2024/03/05 11:18:02;;;;;;;49.37;30.67;;;;;;;8.42;94.81;100438.97;5076869;28;20206;-81
2024/03/05 11:20:42;;;;;;;44.90;31.40;;;;;;;8.40;95.26;100453.69;5076983;28;20288;-82